EFSI/SJY METAR and TAF weather

Enter ICAO airport designator
Station Type Date Time Source
EFSI METAR 2019/12/13 22:20 UTC NOAA

EFSI 132220Z AUTO 14010KT 9999 FEW008 BKN011 OVC014 01/00 Q1000


Station Type Date Time Source
EFSI Decoded METAR 2019/12/13 22:20 UTC NOAA

Seinajoki-Ilmajok, Finland (EFSI) 62-41-37N 022-49-55E
Dec 13, 2019 - 05:20 PM EST / 2019.12.13 2220 UTC
Wind: from the SE (140 degrees) at 12 MPH (10 KT):0
Visibility: greater than 7 mile(s):0
Sky conditions: overcast
Temperature: 33 F (1 C)
Windchill: 24 F (-4 C):1
Dew Point: 32 F (0 C)
Relative Humidity: 93%
Pressure (altimeter): 29.53 in. Hg (1000 hPa)
ob: EFSI 132220Z AUTO 14010KT 9999 FEW008 BKN011 OVC014 01/00 Q1000
cycle: 22

Station Type Date Time Source
EFSI TAF 2012/03/06 09:42 UTC NOAA

TAF EFSI 060830Z 0609/0621 12003KT CAVOK

Example: see airport list